Terminal Aerodrome Forecast
Issued by NWS Shreveport, LA

Home | Current Version | Previous Version | Text Only | Print | Product List | Glossary On
Versions: 1 2 3 4 5 6 7 8 9 10 11 12 13
000
FTUS44 KSHV 290500
TAFSHV
TAF
KSHV 290520Z 2906/3006 19010KT P6SM BKN015
      TEMPO 2908/2912 5SM BR OVC008
     FM291200 20009KT 5SM BR OVC006
      TEMPO 2912/2915 P6SM NSW OVC015
     FM291500 21012G16KT P6SM BKN015
     FM291700 21014G24KT P6SM BKN035
     FM291900 21015G25KT P6SM SCT040
     FM292300 19012G20KT P6SM SCT045=

USA.gov is the U.S. government's official web portal to all federal, state and local government web resources and services.